createdAt,value
2024-05-09T00:00:18.625Z,9.10
2024-05-09T00:01:16.867Z,9.08
2024-05-09T00:02:16.603Z,9.08
2024-05-09T00:03:17.294Z,9.03
2024-05-09T00:04:16.964Z,8.99
2024-05-09T00:05:16.649Z,8.96
2024-05-09T00:06:16.495Z,8.96
2024-05-09T00:07:17.090Z,8.96
2024-05-09T00:08:16.679Z,8.99
2024-05-09T00:09:16.445Z,8.96
2024-05-09T00:10:22.221Z,8.96
2024-05-09T00:11:17.389Z,8.90
2024-05-09T00:12:17.191Z,8.87
2024-05-09T00:13:17.026Z,8.91
2024-05-09T00:14:16.655Z,8.88
2024-05-09T00:15:16.313Z,8.85
2024-05-09T00:16:16.850Z,8.78
2024-05-09T00:17:16.494Z,8.81
2024-05-09T00:18:17.477Z,8.75
2024-05-09T00:19:16.654Z,8.75
2024-05-09T00:20:20.310Z,8.71
2024-05-09T00:21:16.716Z,8.84
2024-05-09T00:22:16.419Z,8.87
2024-05-09T00:23:17.004Z,8.91
2024-05-09T00:24:16.744Z,8.87
2024-05-09T00:25:16.305Z,8.79
2024-05-09T00:26:16.898Z,8.72
2024-05-09T00:27:16.588Z,8.72
2024-05-09T00:28:17.122Z,8.67
2024-05-09T00:29:16.757Z,8.65
2024-05-09T00:30:21.298Z,8.64
2024-05-09T00:31:16.519Z,8.61
2024-05-09T00:32:17.132Z,8.75
2024-05-09T00:33:17.026Z,8.71
2024-05-09T00:34:17.279Z,8.74
2024-05-09T00:35:17.086Z,8.75
2024-05-09T00:36:16.763Z,8.71
2024-05-09T00:37:16.351Z,8.71
2024-05-09T00:38:16.964Z,8.67
2024-05-09T00:39:16.572Z,8.68
2024-05-09T00:40:22.348Z,8.68
2024-05-09T00:41:19.620Z,8.64
2024-05-09T00:42:16.565Z,8.63
2024-05-09T00:43:17.080Z,8.65
2024-05-09T00:44:16.626Z,8.71
2024-05-09T00:45:17.255Z,8.60
2024-05-09T00:46:16.794Z,8.54
2024-05-09T00:47:16.415Z,8.48
2024-05-09T00:48:18.834Z,8.57
2024-05-09T00:49:17.286Z,8.53
2024-05-09T00:50:22.432Z,8.54
2024-05-09T00:51:16.367Z,8.63
2024-05-09T00:52:17.058Z,8.60
2024-05-09T00:53:16.635Z,8.61
2024-05-09T00:54:16.352Z,8.67
2024-05-09T00:55:16.923Z,8.65
2024-05-09T00:56:16.504Z,8.61
2024-05-09T00:57:17.155Z,8.53
2024-05-09T00:58:16.703Z,8.44
2024-05-09T00:59:16.397Z,8.40
2024-05-09T01:00:21.954Z,8.36
2024-05-09T01:01:16.431Z,8.30
2024-05-09T01:02:17.166Z,8.25
2024-05-09T01:03:17.086Z,8.20
2024-05-09T01:04:17.130Z,8.18
2024-05-09T01:05:16.833Z,8.20
2024-05-09T01:06:16.621Z,8.20
2024-05-09T01:07:16.427Z,8.36
2024-05-09T01:08:17.003Z,8.43
2024-05-09T01:09:16.598Z,8.30
2024-05-09T01:10:21.028Z,8.28
2024-05-09T01:11:16.427Z,8.23
2024-05-09T01:12:17.187Z,8.18
2024-05-09T01:13:16.976Z,8.16
2024-05-09T01:14:16.535Z,8.11
2024-05-09T01:15:17.143Z,8.09
2024-05-09T01:16:16.819Z,8.06
2024-05-09T01:17:16.495Z,8.01
2024-05-09T01:18:17.368Z,8.05
2024-05-09T01:19:17.365Z,8.04
2024-05-09T01:20:19.759Z,8.09
2024-05-09T01:21:16.450Z,8.05
2024-05-09T01:22:17.144Z,7.92
2024-05-09T01:23:16.885Z,7.90
2024-05-09T01:24:16.491Z,8.00
2024-05-09T01:25:17.093Z,7.95
2024-05-09T01:26:16.670Z,7.90
2024-05-09T01:27:16.304Z,7.87
2024-05-09T01:28:16.829Z,7.83
2024-05-09T01:29:16.433Z,7.83
2024-05-09T01:30:17.406Z,7.81
2024-05-09T01:31:17.269Z,7.78
2024-05-09T01:32:16.862Z,7.74
2024-05-09T01:33:16.731Z,7.70
2024-05-09T01:34:16.655Z,7.64
2024-05-09T01:35:19.466Z,7.70
2024-05-09T01:36:17.090Z,7.68
2024-05-09T01:37:16.625Z,7.60
2024-05-09T01:38:17.399Z,7.50
2024-05-09T01:39:17.270Z,7.49
2024-05-09T01:40:18.597Z,7.43
2024-05-09T01:41:17.327Z,7.45
2024-05-09T01:42:16.926Z,7.60
2024-05-09T01:43:16.454Z,7.56
2024-05-09T01:44:17.071Z,7.51
2024-05-09T01:45:16.642Z,7.50
2024-05-09T01:46:17.197Z,7.49
2024-05-09T01:47:16.822Z,7.58
2024-05-09T01:48:16.978Z,7.61
2024-05-09T01:49:17.105Z,7.57
2024-05-09T01:50:22.443Z,7.46
2024-05-09T01:51:16.859Z,7.45
2024-05-09T01:52:16.728Z,7.39
2024-05-09T01:53:17.295Z,7.40
2024-05-09T01:54:17.007Z,7.40
2024-05-09T01:55:16.602Z,7.40
2024-05-09T01:56:17.186Z,7.39
2024-05-09T01:57:16.846Z,7.46
2024-05-09T01:58:16.412Z,7.39
2024-05-09T01:59:17.064Z,7.36
2024-05-09T02:00:18.987Z,7.40
2024-05-09T02:01:16.600Z,7.38
2024-05-09T02:02:16.500Z,7.39
2024-05-09T02:03:17.315Z,7.36
2024-05-09T02:04:17.307Z,7.46
2024-05-09T02:05:17.426Z,7.40
2024-05-09T02:06:16.440Z,7.42
2024-05-09T02:07:17.038Z,7.45
2024-05-09T02:08:16.982Z,7.51
2024-05-09T02:09:16.808Z,7.47
2024-05-09T02:10:20.282Z,7.35
2024-05-09T02:11:16.752Z,7.29
2024-05-09T02:12:16.693Z,7.22
2024-05-09T02:13:16.792Z,7.16
2024-05-09T02:14:16.593Z,7.12
2024-05-09T02:15:17.292Z,7.12
2024-05-09T02:16:16.829Z,7.15
2024-05-09T02:17:16.453Z,7.12
2024-05-09T02:18:17.360Z,7.11
2024-05-09T02:19:17.314Z,7.10
2024-05-09T02:20:19.018Z,7.12
2024-05-09T02:21:17.295Z,7.12
2024-05-09T02:22:16.941Z,7.11
2024-05-09T02:23:16.488Z,7.10
2024-05-09T02:24:17.080Z,7.05
2024-05-09T02:25:16.628Z,7.07
2024-05-09T02:26:17.241Z,7.02
2024-05-09T02:27:17.029Z,7.02
2024-05-09T02:28:16.580Z,7.10
2024-05-09T02:29:17.181Z,7.18
2024-05-09T02:30:22.660Z,7.12
2024-05-09T02:31:17.325Z,7.07
2024-05-09T02:32:16.893Z,7.21
2024-05-09T02:33:16.782Z,7.29
2024-05-09T02:34:16.640Z,7.33
2024-05-09T02:35:17.420Z,7.22
2024-05-09T02:36:17.134Z,7.18
2024-05-09T02:37:16.647Z,7.16
2024-05-09T02:38:17.292Z,7.05
2024-05-09T02:39:16.953Z,7.01
2024-05-09T02:40:21.554Z,7.12
2024-05-09T02:41:16.644Z,7.16
2024-05-09T02:42:16.318Z,7.22
2024-05-09T02:43:16.830Z,7.19
2024-05-09T02:44:16.404Z,7.16
2024-05-09T02:45:17.086Z,7.10
2024-05-09T02:46:16.662Z,7.05
2024-05-09T02:47:17.319Z,7.01
2024-05-09T02:48:17.181Z,6.93
2024-05-09T02:49:17.162Z,6.91
2024-05-09T02:50:23.096Z,6.84
2024-05-09T02:51:16.902Z,6.86
2024-05-09T02:52:16.555Z,6.83
2024-05-09T02:53:17.174Z,6.93
2024-05-09T02:54:16.856Z,6.86
2024-05-09T02:55:16.414Z,6.84
2024-05-09T02:56:17.012Z,6.80
2024-05-09T02:57:16.665Z,6.80
2024-05-09T02:58:17.180Z,6.76
2024-05-09T02:59:16.778Z,6.76
2024-05-09T03:00:18.950Z,6.73
2024-05-09T03:01:17.237Z,6.73
2024-05-09T03:02:16.966Z,6.72
2024-05-09T03:03:16.752Z,6.70
2024-05-09T03:04:16.925Z,6.73
2024-05-09T03:05:16.576Z,6.73
2024-05-09T03:06:17.136Z,6.79
2024-05-09T03:07:18.386Z,6.82
2024-05-09T03:08:16.778Z,6.84
2024-05-09T03:09:16.397Z,6.83
2024-05-09T03:10:18.570Z,6.79
2024-05-09T03:11:17.348Z,6.74
2024-05-09T03:12:17.095Z,6.70
2024-05-09T03:13:16.750Z,6.67
2024-05-09T03:14:16.374Z,6.66
2024-05-09T03:15:17.016Z,6.63
2024-05-09T03:16:16.570Z,6.61
2024-05-09T03:17:17.194Z,6.61
2024-05-09T03:18:17.047Z,6.60
2024-05-09T03:19:16.897Z,6.61
2024-05-09T03:20:20.392Z,6.60
2024-05-09T03:21:16.532Z,6.82
2024-05-09T03:22:17.095Z,6.86
2024-05-09T03:23:16.755Z,6.82
2024-05-09T03:24:16.385Z,6.72
2024-05-09T03:25:17.046Z,6.82
2024-05-09T03:26:16.619Z,6.70
2024-05-09T03:27:17.272Z,6.66
2024-05-09T03:28:16.861Z,6.80
2024-05-09T03:29:16.436Z,6.87
2024-05-09T03:30:25.581Z,6.84
2024-05-09T03:31:16.936Z,6.80
2024-05-09T03:32:16.575Z,6.77
2024-05-09T03:33:16.603Z,6.79
2024-05-09T03:34:17.083Z,6.76
2024-05-09T03:35:16.773Z,6.76
2024-05-09T03:36:16.420Z,6.74
2024-05-09T03:37:16.964Z,6.73
2024-05-09T03:38:16.783Z,6.69
2024-05-09T03:39:16.793Z,6.67
2024-05-09T03:40:20.750Z,6.73
2024-05-09T03:41:16.506Z,6.70
2024-05-09T03:42:17.149Z,6.70
2024-05-09T03:43:16.705Z,6.69
2024-05-09T03:44:17.257Z,6.73
2024-05-09T03:45:16.943Z,6.72
2024-05-09T03:46:16.513Z,6.72
2024-05-09T03:47:17.129Z,6.76
2024-05-09T03:48:17.266Z,6.72
2024-05-09T03:49:16.704Z,6.76
2024-05-09T03:50:18.408Z,6.87
2024-05-09T03:51:16.507Z,6.91
2024-05-09T03:52:17.178Z,6.88
2024-05-09T03:53:16.833Z,6.83
2024-05-09T03:54:16.504Z,6.80
2024-05-09T03:55:17.052Z,6.72
2024-05-09T03:56:16.588Z,6.80
2024-05-09T03:57:17.245Z,6.77
2024-05-09T03:58:16.810Z,6.77
2024-05-09T03:59:16.367Z,6.82
2024-05-09T04:00:18.072Z,6.82
2024-05-09T04:01:16.881Z,6.70
2024-05-09T04:02:16.566Z,6.65
2024-05-09T04:03:17.353Z,6.60
2024-05-09T04:04:16.371Z,6.55
2024-05-09T04:05:17.127Z,6.52
2024-05-09T04:06:16.928Z,6.49
2024-05-09T04:07:16.437Z,6.55
2024-05-09T04:08:17.042Z,6.55
2024-05-09T04:09:16.700Z,6.53
2024-05-09T04:10:23.695Z,6.52
2024-05-09T04:11:16.489Z,6.53
2024-05-09T04:12:17.240Z,6.53
2024-05-09T04:13:17.060Z,6.59
2024-05-09T04:14:16.710Z,6.48
2024-05-09T04:15:16.364Z,6.43
2024-05-09T04:16:16.925Z,6.42
2024-05-09T04:17:16.539Z,6.40
2024-05-09T04:18:17.170Z,6.42
2024-05-09T04:19:17.013Z,6.42
2024-05-09T04:20:24.105Z,6.46
2024-05-09T04:21:17.115Z,6.49
2024-05-09T04:22:16.728Z,6.56
2024-05-09T04:23:17.285Z,6.66
2024-05-09T04:24:16.936Z,6.59
2024-05-09T04:25:16.487Z,6.52
2024-05-09T04:26:17.062Z,6.52
2024-05-09T04:27:16.763Z,6.70
2024-05-09T04:28:17.313Z,6.74
2024-05-09T04:29:16.883Z,6.76
2024-05-09T04:30:21.553Z,6.61
2024-05-09T04:31:17.020Z,6.65
2024-05-09T04:32:16.658Z,6.66
2024-05-09T04:33:16.522Z,6.49
2024-05-09T04:34:16.524Z,6.52
2024-05-09T04:35:16.548Z,6.56
2024-05-09T04:36:17.142Z,6.61
2024-05-09T04:37:16.667Z,6.52
2024-05-09T04:38:17.277Z,6.53
2024-05-09T04:39:16.866Z,6.50
2024-05-09T04:40:20.979Z,6.48
2024-05-09T04:41:16.386Z,6.43
2024-05-09T04:42:17.002Z,6.48
2024-05-09T04:43:16.597Z,6.69
2024-05-09T04:44:17.192Z,6.91
2024-05-09T04:45:16.856Z,7.01
2024-05-09T04:46:16.406Z,7.00
2024-05-09T04:47:17.103Z,6.95
2024-05-09T04:48:17.260Z,6.95
2024-05-09T04:49:17.204Z,7.00
2024-05-09T04:50:20.836Z,7.08
2024-05-09T04:51:16.831Z,7.15
2024-05-09T04:52:16.473Z,7.19
2024-05-09T04:53:17.465Z,7.23
2024-05-09T04:54:22.275Z,6.98
2024-05-09T04:55:16.716Z,6.93
2024-05-09T04:56:17.262Z,7.00
2024-05-09T04:57:17.018Z,7.22
2024-05-09T04:58:16.543Z,7.15
2024-05-09T04:59:17.082Z,7.18
2024-05-09T05:00:21.486Z,7.29
2024-05-09T05:01:16.970Z,7.33
2024-05-09T05:02:16.708Z,7.29
2024-05-09T05:03:16.947Z,7.30
2024-05-09T05:04:16.593Z,7.25
2024-05-09T05:05:16.535Z,7.12
2024-05-09T05:06:16.510Z,7.23
2024-05-09T05:07:17.062Z,7.36
2024-05-09T05:08:17.292Z,7.40
2024-05-09T05:09:16.883Z,7.35
2024-05-09T05:10:21.294Z,7.43
2024-05-09T05:11:16.797Z,7.49
2024-05-09T05:12:16.635Z,7.50
2024-05-09T05:13:16.407Z,7.57
2024-05-09T05:14:16.458Z,7.58
2024-05-09T05:15:17.205Z,7.64
2024-05-09T05:16:16.775Z,7.56
2024-05-09T05:17:16.347Z,7.51
2024-05-09T05:18:17.167Z,7.57
2024-05-09T05:19:17.768Z,7.70
2024-05-09T05:20:24.040Z,7.70
2024-05-09T05:21:17.240Z,7.77
2024-05-09T05:22:16.853Z,7.91
2024-05-09T05:23:16.695Z,8.02
2024-05-09T05:24:16.490Z,8.11
2024-05-09T05:25:17.069Z,8.16
2024-05-09T05:26:16.719Z,8.32
2024-05-09T05:27:16.337Z,8.37
2024-05-09T05:28:16.951Z,8.41
2024-05-09T05:29:19.500Z,8.47
2024-05-09T05:30:20.975Z,8.48
2024-05-09T05:31:16.383Z,8.53
2024-05-09T05:32:17.210Z,8.60
2024-05-09T05:33:17.069Z,8.57
2024-05-09T05:34:16.824Z,8.63
2024-05-09T05:35:16.529Z,8.69
2024-05-09T05:36:17.141Z,8.69
2024-05-09T05:37:16.724Z,8.79
2024-05-09T05:38:17.312Z,8.81
2024-05-09T05:39:17.014Z,8.87
2024-05-09T05:40:24.715Z,8.90
2024-05-09T05:41:16.352Z,8.95
2024-05-09T05:42:17.087Z,9.10
2024-05-09T05:43:16.611Z,9.30
2024-05-09T05:44:17.416Z,9.34
2024-05-09T05:45:17.253Z,9.74
2024-05-09T05:46:16.832Z,9.81
2024-05-09T05:47:16.476Z,9.80
2024-05-09T05:48:17.732Z,9.81
2024-05-09T05:49:16.588Z,9.82
2024-05-09T05:50:20.961Z,9.89
2024-05-09T05:51:16.607Z,9.75
2024-05-09T05:52:16.363Z,9.30
2024-05-09T05:53:16.913Z,9.23
2024-05-09T05:54:16.526Z,9.31
2024-05-09T05:55:17.116Z,9.30
2024-05-09T05:56:16.701Z,9.33
2024-05-09T05:57:17.300Z,9.26
2024-05-09T05:58:16.845Z,9.26
2024-05-09T05:59:16.432Z,9.48
2024-05-09T06:00:25.291Z,10.00
2024-05-09T06:01:16.968Z,10.09
2024-05-09T06:02:16.728Z,10.06
2024-05-09T06:03:16.571Z,10.27
2024-05-09T06:04:17.345Z,10.08
2024-05-09T06:05:17.040Z,9.96
2024-05-09T06:06:16.664Z,10.02
2024-05-09T06:07:17.257Z,10.00
2024-05-09T06:08:16.838Z,10.08
2024-05-09T06:09:16.520Z,10.21
2024-05-09T06:10:21.216Z,10.48
2024-05-09T06:11:16.986Z,10.51
2024-05-09T06:12:16.769Z,10.49
2024-05-09T06:13:16.411Z,10.38
2024-05-09T06:14:17.089Z,10.34
2024-05-09T06:15:16.760Z,10.40
2024-05-09T06:16:17.315Z,10.82
2024-05-09T06:17:17.018Z,10.75
2024-05-09T06:18:17.003Z,10.75
2024-05-09T06:19:16.495Z,10.85
2024-05-09T06:20:20.688Z,11.10
2024-05-09T06:21:16.695Z,11.06
2024-05-09T06:22:16.569Z,11.02
2024-05-09T06:23:17.124Z,11.38
2024-05-09T06:24:16.801Z,11.41
2024-05-09T06:25:16.343Z,11.34
2024-05-09T06:26:16.933Z,11.30
2024-05-09T06:27:16.553Z,11.26
2024-05-09T06:28:17.081Z,11.31
2024-05-09T06:29:16.597Z,11.44
2024-05-09T06:30:21.186Z,11.38
2024-05-09T06:31:16.529Z,11.20
2024-05-09T06:32:17.196Z,11.40
2024-05-09T06:33:17.170Z,11.43
2024-05-09T06:34:16.495Z,11.66
2024-05-09T06:35:16.388Z,11.85
2024-05-09T06:36:16.994Z,11.79
2024-05-09T06:37:16.564Z,11.76
2024-05-09T06:38:17.298Z,12.01
2024-05-09T06:39:16.913Z,12.20
2024-05-09T06:40:21.144Z,12.21
2024-05-09T06:41:16.389Z,12.59
2024-05-09T06:42:17.186Z,12.83
2024-05-09T06:43:17.957Z,12.83
2024-05-09T06:44:16.513Z,12.55
2024-05-09T06:45:17.254Z,12.86
2024-05-09T06:46:16.779Z,12.92
2024-05-09T06:47:16.446Z,13.49
2024-05-09T06:48:17.184Z,13.43
2024-05-09T06:49:17.251Z,13.25
2024-05-09T06:50:23.204Z,13.14
2024-05-09T06:51:16.724Z,13.07
2024-05-09T06:52:16.553Z,13.24
2024-05-09T06:53:17.293Z,13.34
2024-05-09T06:54:17.252Z,13.31
2024-05-09T06:55:16.830Z,13.56
2024-05-09T06:56:16.413Z,13.75
2024-05-09T06:57:17.018Z,13.98
2024-05-09T06:58:16.579Z,14.38
2024-05-09T06:59:17.199Z,14.55
2024-05-09T07:00:22.449Z,14.87
2024-05-09T07:01:16.493Z,14.98
2024-05-09T07:02:17.207Z,14.63
2024-05-09T07:03:17.843Z,14.45
2024-05-09T07:04:16.359Z,14.43
2024-05-09T07:05:17.427Z,14.27
2024-05-09T07:06:17.250Z,14.56
2024-05-09T07:07:16.856Z,14.84
2024-05-09T07:08:16.618Z,15.39
2024-05-09T07:09:16.619Z,15.55
2024-05-09T07:10:21.483Z,15.38
2024-05-09T07:11:16.553Z,15.74
2024-05-09T07:12:16.404Z,15.74
2024-05-09T07:13:16.447Z,16.07
2024-05-09T07:14:17.092Z,16.47
2024-05-09T07:15:16.771Z,16.84
2024-05-09T07:16:16.476Z,17.08
2024-05-09T07:17:17.087Z,17.84
2024-05-09T07:18:17.675Z,17.99
2024-05-09T07:19:16.938Z,17.99
2024-05-09T07:20:20.259Z,16.99
2024-05-09T07:21:17.277Z,17.26
2024-05-09T07:22:16.973Z,17.49
2024-05-09T07:23:16.643Z,18.13
2024-05-09T07:24:17.296Z,18.12
2024-05-09T07:25:16.822Z,18.22
2024-05-09T07:26:16.424Z,18.77
2024-05-09T07:27:17.207Z,19.22
2024-05-09T07:28:16.727Z,19.48
2024-05-09T07:29:16.496Z,20.05
2024-05-09T07:30:23.371Z,20.46
2024-05-09T07:31:16.428Z,20.52
2024-05-09T07:32:17.002Z,19.74
2024-05-09T07:33:16.933Z,19.47
2024-05-09T07:34:17.156Z,19.71
2024-05-09T07:35:17.158Z,19.62
2024-05-09T07:36:16.838Z,19.12
2024-05-09T07:37:16.367Z,18.67
2024-05-09T07:38:16.934Z,18.81
2024-05-09T07:39:16.606Z,19.09
2024-05-09T07:40:24.152Z,19.91
2024-05-09T07:41:16.816Z,20.16
2024-05-09T07:42:16.568Z,20.51
2024-05-09T07:43:17.261Z,20.31
2024-05-09T07:44:16.896Z,19.85
2024-05-09T07:45:29.505Z,20.36
2024-05-09T07:46:45.600Z,20.76
2024-05-09T07:49:12.020Z,21.83
2024-05-09T07:50:33.242Z,21.98
2024-05-09T07:53:08.025Z,20.43
2024-05-09T07:53:33.812Z,20.17
2024-05-09T07:54:16.758Z,21.16
2024-05-09T07:55:16.873Z,21.92
2024-05-09T07:56:17.723Z,22.07
2024-05-09T07:57:16.529Z,21.95
2024-05-09T07:58:17.267Z,19.68
2024-05-09T07:59:16.852Z,19.96
2024-05-09T08:00:20.104Z,20.96
2024-05-09T08:01:16.742Z,22.30
2024-05-09T08:02:16.894Z,22.88
2024-05-09T08:03:16.746Z,22.86
2024-05-09T08:04:16.537Z,23.29
2024-05-09T08:05:17.333Z,23.03
2024-05-09T08:06:17.080Z,23.26
2024-05-09T08:07:16.632Z,22.55
2024-05-09T08:08:17.240Z,21.30
2024-05-09T08:09:19.396Z,21.85
2024-05-09T08:10:21.884Z,22.97
2024-05-09T08:11:16.503Z,22.85
2024-05-09T08:12:17.143Z,23.05
2024-05-09T08:13:16.684Z,23.26
2024-05-09T08:14:16.370Z,23.54
2024-05-09T08:15:16.923Z,23.86
2024-05-09T08:16:16.562Z,24.13
2024-05-09T08:17:17.263Z,24.37
2024-05-09T08:18:17.043Z,24.50
2024-05-09T08:19:17.014Z,24.59
2024-05-09T08:20:22.789Z,23.42
2024-05-09T08:21:16.331Z,23.52
2024-05-09T08:22:16.855Z,23.36
2024-05-09T08:23:16.479Z,23.66
2024-05-09T08:24:17.023Z,23.72
2024-05-09T08:25:16.726Z,23.26
2024-05-09T08:26:16.530Z,23.52
2024-05-09T08:27:17.097Z,23.40
2024-05-09T08:28:16.721Z,22.97
2024-05-09T08:29:16.467Z,23.29
2024-05-09T08:30:21.700Z,24.00
2024-05-09T08:31:17.258Z,24.00
2024-05-09T08:32:16.991Z,22.90
2024-05-09T08:33:16.614Z,22.78
2024-05-09T08:34:16.660Z,23.02
2024-05-09T08:35:16.572Z,22.90
2024-05-09T08:36:17.118Z,23.03
2024-05-09T08:37:21.381Z,23.55
2024-05-09T08:38:16.711Z,24.27
2024-05-09T08:39:17.240Z,24.04
2024-05-09T08:40:19.946Z,24.24
2024-05-09T08:41:16.573Z,24.17
2024-05-09T08:42:17.116Z,24.24
2024-05-09T08:43:16.788Z,24.24
2024-05-09T08:44:16.624Z,24.48
2024-05-09T08:45:17.299Z,23.88
2024-05-09T08:46:17.014Z,23.36
2024-05-09T08:47:16.991Z,23.97
2024-05-09T08:48:16.834Z,23.85
2024-05-09T08:49:17.178Z,22.71
2024-05-09T08:50:23.873Z,22.65
2024-05-09T08:51:16.635Z,22.80
2024-05-09T08:52:17.315Z,22.85
2024-05-09T08:53:16.883Z,23.13
2024-05-09T08:54:16.412Z,22.97
2024-05-09T08:55:16.947Z,23.88
2024-05-09T08:56:16.581Z,24.40
2024-05-09T08:57:17.142Z,22.72
2024-05-09T08:58:17.009Z,20.76
2024-05-09T08:59:16.983Z,20.93
2024-05-09T09:00:21.454Z,22.26
2024-05-09T09:01:16.726Z,23.68
2024-05-09T09:02:16.609Z,23.68
2024-05-09T09:03:16.633Z,23.27
2024-05-09T09:04:17.431Z,22.95
2024-05-09T09:05:17.461Z,22.92
2024-05-09T09:06:16.433Z,24.30
2024-05-09T09:07:16.966Z,22.79
2024-05-09T09:08:16.521Z,22.99
2024-05-09T09:09:17.094Z,23.81
2024-05-09T09:10:24.864Z,24.10
2024-05-09T09:11:17.000Z,24.02
2024-05-09T09:12:16.599Z,23.22
2024-05-09T09:13:17.296Z,23.65
2024-05-09T09:14:17.102Z,23.93
2024-05-09T09:15:16.669Z,23.84
2024-05-09T09:16:17.456Z,24.12
2024-05-09T09:17:17.209Z,24.48
2024-05-09T09:18:17.080Z,23.91
2024-05-09T09:19:16.492Z,24.00
2024-05-09T09:20:19.229Z,24.02
2024-05-09T09:21:16.871Z,23.88
2024-05-09T09:22:16.450Z,23.47
2024-05-09T09:23:17.108Z,23.38
2024-05-09T09:24:16.666Z,23.13
2024-05-09T09:25:17.265Z,22.58
2024-05-09T09:26:16.870Z,22.41
2024-05-09T09:27:16.408Z,22.13
2024-05-09T09:28:17.022Z,21.47
2024-05-09T09:29:16.691Z,20.96
2024-05-09T09:30:27.229Z,20.89
2024-05-09T09:31:16.723Z,20.57
2024-05-09T09:32:16.428Z,20.46
2024-05-09T09:33:17.136Z,20.72
2024-05-09T09:34:16.942Z,21.82
2024-05-09T09:35:16.707Z,22.85
2024-05-09T09:36:17.242Z,23.20
2024-05-09T09:37:16.775Z,23.76
2024-05-09T09:38:16.396Z,24.00
2024-05-09T09:39:16.919Z,23.17
2024-05-09T09:40:18.244Z,22.71
2024-05-09T09:41:16.428Z,21.88
2024-05-09T09:42:16.951Z,22.24
2024-05-09T09:43:16.549Z,22.85
2024-05-09T09:44:17.284Z,21.62
2024-05-09T09:45:16.879Z,21.58
2024-05-09T09:46:16.616Z,21.05
2024-05-09T09:47:16.403Z,21.36
2024-05-09T09:48:17.162Z,21.64
2024-05-09T09:49:17.110Z,20.98
2024-05-09T09:50:20.785Z,20.67
2024-05-09T09:51:16.936Z,21.23
2024-05-09T09:52:16.523Z,21.45
2024-05-09T09:53:16.475Z,21.93
2024-05-09T09:54:17.061Z,22.05
2024-05-09T09:55:16.723Z,22.03
2024-05-09T09:56:16.377Z,21.95
2024-05-09T09:57:16.927Z,21.58
2024-05-09T09:58:16.544Z,21.47
2024-05-09T09:59:16.570Z,21.09
2024-05-09T10:01:16.890Z,21.23
2024-05-09T10:02:16.889Z,21.69
2024-05-09T10:03:16.955Z,22.57
2024-05-09T10:04:16.826Z,21.66
2024-05-09T10:05:16.861Z,21.26
2024-05-09T10:13:17.347Z,20.21
2024-05-09T10:14:17.239Z,20.44
2024-05-09T10:15:16.814Z,19.93
2024-05-09T10:16:16.369Z,20.02
2024-05-09T10:17:16.992Z,20.41
2024-05-09T10:18:16.839Z,20.74
2024-05-09T10:19:16.935Z,20.64
2024-05-09T10:20:21.272Z,20.19
2024-05-09T10:21:17.109Z,20.09
2024-05-09T10:22:16.730Z,20.27
2024-05-09T10:23:16.360Z,20.10
2024-05-09T10:24:16.923Z,20.82
2024-05-09T10:25:16.538Z,21.50
2024-05-09T10:26:16.442Z,21.05
2024-05-09T10:27:17.006Z,21.07
2024-05-09T10:28:16.594Z,21.88
2024-05-09T10:29:17.255Z,22.37
2024-05-09T10:30:21.484Z,22.75
2024-05-09T10:31:16.851Z,22.90
2024-05-09T10:32:16.382Z,23.55
2024-05-09T10:33:17.196Z,23.44
2024-05-09T10:34:17.057Z,22.76
2024-05-09T10:35:16.891Z,22.69
2024-05-09T10:36:16.472Z,21.73
2024-05-09T10:37:17.112Z,21.47
2024-05-09T10:38:16.753Z,21.76
2024-05-09T10:39:17.296Z,21.76
2024-05-09T10:40:22.819Z,22.21
2024-05-09T10:41:16.915Z,21.99
2024-05-09T10:42:16.492Z,22.82
2024-05-09T10:43:17.090Z,23.50
2024-05-09T10:44:16.901Z,22.30
2024-05-09T10:45:16.468Z,22.54
2024-05-09T10:46:17.104Z,22.47
2024-05-09T10:47:16.756Z,22.86
2024-05-09T10:48:16.411Z,23.97
2024-05-09T10:49:17.366Z,23.45
2024-05-09T10:50:21.940Z,22.02
2024-05-09T10:51:16.435Z,22.20
2024-05-09T10:52:16.970Z,22.35
2024-05-09T10:53:16.613Z,22.68
2024-05-09T10:54:17.156Z,23.47
2024-05-09T10:55:16.832Z,24.21
2024-05-09T10:56:16.893Z,25.26
2024-05-09T10:57:16.980Z,25.88
2024-05-09T10:58:16.630Z,25.58
2024-05-09T10:59:16.400Z,25.03
2024-05-09T11:00:23.047Z,25.66
2024-05-09T11:01:16.950Z,25.75
2024-05-09T11:02:16.752Z,24.23
2024-05-09T11:03:16.790Z,23.93
2024-05-09T11:04:16.750Z,24.02
2024-05-09T11:05:16.862Z,23.44
2024-05-09T11:06:16.811Z,23.93
2024-05-09T11:07:16.477Z,24.40
2024-05-09T11:08:17.230Z,24.69
2024-05-09T11:09:16.803Z,25.13
2024-05-09T11:10:20.657Z,25.61
2024-05-09T11:11:17.023Z,25.33
2024-05-09T11:12:16.737Z,24.82
2024-05-09T11:13:17.338Z,24.51
2024-05-09T11:14:16.981Z,23.96
2024-05-09T11:15:16.548Z,23.61
2024-05-09T11:16:17.427Z,23.61
2024-05-09T11:17:17.294Z,23.89
2024-05-09T11:18:17.021Z,24.02
2024-05-09T11:19:17.261Z,24.24
2024-05-09T11:20:22.546Z,23.07
2024-05-09T11:21:16.511Z,23.17
2024-05-09T11:22:17.081Z,23.71
2024-05-09T11:23:16.781Z,23.71
2024-05-09T11:24:16.385Z,23.89
2024-05-09T11:25:17.043Z,24.48
2024-05-09T11:26:16.806Z,24.89
2024-05-09T11:27:16.391Z,25.44
2024-05-09T11:28:17.072Z,25.85
2024-05-09T11:29:18.660Z,25.89
2024-05-09T11:30:21.027Z,25.66
2024-05-09T11:31:17.369Z,25.11
2024-05-09T11:32:16.690Z,24.75
2024-05-09T11:33:17.408Z,24.61
2024-05-09T11:34:17.154Z,24.59
2024-05-09T11:35:16.869Z,25.06
2024-05-09T11:36:16.515Z,25.10
2024-05-09T11:37:17.142Z,24.95
2024-05-09T11:38:17.108Z,24.44
2024-05-09T11:39:16.659Z,24.51
2024-05-09T11:40:21.516Z,24.17
2024-05-09T11:41:16.391Z,23.47
2024-05-09T11:42:16.980Z,23.68
2024-05-09T11:43:16.742Z,22.85
2024-05-09T11:44:16.517Z,22.58
2024-05-09T11:45:17.061Z,22.51
2024-05-09T11:46:17.068Z,22.55
2024-05-09T11:47:16.895Z,22.88
2024-05-09T11:48:16.622Z,22.86
2024-05-09T11:49:16.562Z,22.90
2024-05-09T11:50:22.370Z,22.60
2024-05-09T11:51:17.300Z,22.21
2024-05-09T11:52:16.972Z,21.27
2024-05-09T11:53:16.760Z,21.07
2024-05-09T11:54:16.428Z,21.17
2024-05-09T11:55:17.058Z,20.98
2024-05-09T11:56:16.863Z,20.72
2024-05-09T11:57:16.448Z,20.67
2024-05-09T11:58:17.461Z,20.70
2024-05-09T11:59:16.649Z,20.70
2024-05-09T12:00:20.689Z,20.67
2024-05-09T12:01:16.463Z,20.52
2024-05-09T12:02:17.351Z,20.46
2024-05-09T12:03:17.070Z,20.24
2024-05-09T12:04:16.843Z,20.24
2024-05-09T12:06:16.818Z,19.68
2024-05-09T12:07:16.566Z,19.71
2024-05-09T12:08:16.576Z,19.67
2024-05-09T12:09:16.978Z,19.14
2024-05-09T12:10:19.275Z,19.05
2024-05-09T12:11:16.847Z,19.29
2024-05-09T12:12:16.658Z,19.54
2024-05-09T12:13:17.245Z,19.61
2024-05-09T12:14:16.827Z,19.65
2024-05-09T12:15:16.370Z,19.60
2024-05-09T12:16:17.409Z,19.47
2024-05-09T12:17:17.242Z,19.47
2024-05-09T12:18:17.021Z,19.41
2024-05-09T12:19:16.680Z,19.48
2024-05-09T12:20:20.862Z,19.43
2024-05-09T12:21:17.172Z,19.50
2024-05-09T12:22:16.848Z,19.51
2024-05-09T12:23:16.622Z,19.60
2024-05-09T12:24:18.394Z,19.64
2024-05-09T12:25:17.372Z,19.61
2024-05-09T12:26:17.155Z,19.54
2024-05-09T12:27:16.681Z,19.36
2024-05-09T12:28:17.443Z,19.26
2024-05-09T12:29:17.257Z,19.06
2024-05-09T12:30:20.687Z,19.01
2024-05-09T12:31:16.835Z,19.02
2024-05-09T12:32:16.691Z,18.91
2024-05-09T12:33:16.635Z,18.85
2024-05-09T12:34:16.615Z,18.89
2024-05-09T12:35:16.408Z,18.77
2024-05-09T12:36:17.024Z,18.68
2024-05-09T12:37:16.711Z,18.84
2024-05-09T12:38:16.561Z,18.96
2024-05-09T12:39:17.174Z,19.02
2024-05-09T12:40:22.781Z,19.05
2024-05-09T12:41:16.368Z,19.02
2024-05-09T12:42:25.844Z,19.03
2024-05-09T12:43:16.852Z,18.72
2024-05-09T12:44:16.535Z,18.64
2024-05-09T12:45:17.128Z,18.68
2024-05-09T12:46:16.740Z,18.75
2024-05-09T12:47:16.483Z,18.85
2024-05-09T12:48:17.298Z,19.07
2024-05-09T12:49:18.867Z,19.16
2024-05-09T12:50:22.206Z,19.26
2024-05-09T12:51:17.073Z,19.39
2024-05-09T12:52:16.748Z,19.40
2024-05-09T12:53:16.650Z,19.39
2024-05-09T12:54:17.252Z,19.27
2024-05-09T12:55:16.877Z,19.22
2024-05-09T12:56:16.774Z,19.30
2024-05-09T12:57:16.328Z,19.46
2024-05-09T12:58:17.362Z,19.56
2024-05-09T12:59:16.405Z,19.56
2024-05-09T13:00:20.645Z,19.31
2024-05-09T13:01:16.364Z,19.23
2024-05-09T13:02:17.337Z,19.07
2024-05-09T13:03:17.355Z,19.01
2024-05-09T13:04:17.187Z,18.78
2024-05-09T13:05:17.171Z,18.74
2024-05-09T13:06:17.162Z,19.01
2024-05-09T13:07:16.722Z,19.10
2024-05-09T13:08:16.553Z,19.07
2024-05-09T13:09:17.116Z,19.09
2024-05-09T13:10:22.954Z,19.10
2024-05-09T13:11:16.524Z,19.12
2024-05-09T13:12:17.314Z,19.09
2024-05-09T13:13:17.069Z,19.13
2024-05-09T13:14:16.954Z,19.10
2024-05-09T13:15:16.572Z,19.05
2024-05-09T13:16:17.314Z,18.92